sensor_id;sensor_type;location;lat;lon;timestamp;pressure;altitude;pressure_sealevel;temperature;humidity
40918;BME280;26644;50.248;19.032;2023-05-09T00:00:26;99144.19;;;5.35;69.44
40918;BME280;26644;50.248;19.032;2023-05-09T00:03:31;99140.19;;;5.38;69.32
40918;BME280;26644;50.248;19.032;2023-05-09T00:06:36;99134.59;;;5.33;69.14
40918;BME280;26644;50.248;19.032;2023-05-09T00:09:41;99138.13;;;5.33;69.50
40918;BME280;26644;50.248;19.032;2023-05-09T00:12:46;99134.19;;;5.29;69.59
40918;BME280;26644;50.248;19.032;2023-05-09T00:15:54;99131.09;;;5.25;69.54
40918;BME280;26644;50.248;19.032;2023-05-09T00:18:59;99119.94;;;5.15;69.64
40918;BME280;26644;50.248;19.032;2023-05-09T00:22:03;99137.31;;;5.14;69.95
40918;BME280;26644;50.248;19.032;2023-05-09T00:25:10;99133.75;;;5.14;69.96
40918;BME280;26644;50.248;19.032;2023-05-09T00:28:15;99114.53;;;5.08;70.00
40918;BME280;26644;50.248;19.032;2023-05-09T00:31:23;99122.94;;;5.07;70.21
40918;BME280;26644;50.248;19.032;2023-05-09T00:34:28;99126.13;;;5.04;70.06
40918;BME280;26644;50.248;19.032;2023-05-09T00:37:33;99110.09;;;4.96;70.34
40918;BME280;26644;50.248;19.032;2023-05-09T00:40:37;99113.63;;;4.96;70.21
40918;BME280;26644;50.248;19.032;2023-05-09T00:43:43;99115.97;;;4.92;70.40
40918;BME280;26644;50.248;19.032;2023-05-09T00:46:50;99117.88;;;4.92;70.43
40918;BME280;26644;50.248;19.032;2023-05-09T00:49:56;99112.66;;;4.90;70.45
40918;BME280;26644;50.248;19.032;2023-05-09T00:53:02;99109.25;;;4.95;70.50
40918;BME280;26644;50.248;19.032;2023-05-09T00:56:08;99101.78;;;4.90;70.51
40918;BME280;26644;50.248;19.032;2023-05-09T00:59:14;99102.00;;;4.89;70.56
40918;BME280;26644;50.248;19.032;2023-05-09T01:02:22;99105.84;;;4.81;70.66
40918;BME280;26644;50.248;19.032;2023-05-09T01:05:33;99108.41;;;4.76;70.86
40918;BME280;26644;50.248;19.032;2023-05-09T01:08:56;99102.34;;;4.74;71.08
40918;BME280;26644;50.248;19.032;2023-05-09T01:12:15;99091.09;;;4.70;71.23
40918;BME280;26644;50.248;19.032;2023-05-09T01:15:35;99069.25;;;4.58;71.50
40918;BME280;26644;50.248;19.032;2023-05-09T01:18:51;99078.72;;;4.49;71.65
40918;BME280;26644;50.248;19.032;2023-05-09T01:22:07;99075.84;;;4.44;71.84
40918;BME280;26644;50.248;19.032;2023-05-09T01:25:35;99092.16;;;4.44;72.07
40918;BME280;26644;50.248;19.032;2023-05-09T01:29:18;99092.38;;;4.42;72.11
40918;BME280;26644;50.248;19.032;2023-05-09T01:32:37;99083.44;;;4.35;72.06
40918;BME280;26644;50.248;19.032;2023-05-09T01:35:49;99089.50;;;4.37;72.13
40918;BME280;26644;50.248;19.032;2023-05-09T01:38:58;99088.06;;;4.35;72.30
40918;BME280;26644;50.248;19.032;2023-05-09T01:42:08;99081.63;;;4.29;72.33
40918;BME280;26644;50.248;19.032;2023-05-09T01:45:19;99080.19;;;4.26;72.49
40918;BME280;26644;50.248;19.032;2023-05-09T01:48:27;99076.06;;;4.17;72.73
40918;BME280;26644;50.248;19.032;2023-05-09T01:51:37;99074.19;;;4.18;72.94
40918;BME280;26644;50.248;19.032;2023-05-09T01:54:45;99076.06;;;4.17;73.16
40918;BME280;26644;50.248;19.032;2023-05-09T01:57:53;99064.00;;;4.13;73.09
40918;BME280;26644;50.248;19.032;2023-05-09T02:01:04;99069.41;;;4.13;73.31
40918;BME280;26644;50.248;19.032;2023-05-09T02:04:12;99072.72;;;4.15;73.17
40918;BME280;26644;50.248;19.032;2023-05-09T02:07:19;99079.22;;;4.14;73.01
40918;BME280;26644;50.248;19.032;2023-05-09T02:10:30;99075.91;;;4.12;73.07
40918;BME280;26644;50.248;19.032;2023-05-09T02:13:39;99065.03;;;4.12;73.03
40918;BME280;26644;50.248;19.032;2023-05-09T02:16:47;99072.78;;;4.08;73.25
40918;BME280;26644;50.248;19.032;2023-05-09T02:19:52;99071.34;;;4.06;73.30
40918;BME280;26644;50.248;19.032;2023-05-09T02:22:58;99066.19;;;3.98;73.83
40918;BME280;26644;50.248;19.032;2023-05-09T02:26:02;99068.06;;;3.97;73.77
40918;BME280;26644;50.248;19.032;2023-05-09T02:29:10;99060.34;;;3.94;73.91
40918;BME280;26644;50.248;19.032;2023-05-09T02:32:21;99054.09;;;3.93;73.91
40918;BME280;26644;50.248;19.032;2023-05-09T02:35:31;99054.53;;;3.90;74.05
40918;BME280;26644;50.248;19.032;2023-05-09T02:38:37;99049.94;;;3.91;74.06
40918;BME280;26644;50.248;19.032;2023-05-09T02:41:47;99044.69;;;3.96;74.06
40918;BME280;26644;50.248;19.032;2023-05-09T02:44:53;99050.75;;;3.91;73.96
40918;BME280;26644;50.248;19.032;2023-05-09T02:48:03;99057.03;;;3.92;73.92
40918;BME280;26644;50.248;19.032;2023-05-09T02:51:08;99056.88;;;3.87;74.43
40918;BME280;26644;50.248;19.032;2023-05-09T02:54:13;99056.25;;;3.85;74.58
40918;BME280;26644;50.248;19.032;2023-05-09T02:57:18;99056.25;;;3.85;74.68
40918;BME280;26644;50.248;19.032;2023-05-09T03:00:23;99042.06;;;3.83;74.41
40918;BME280;26644;50.248;19.032;2023-05-09T03:03:31;99052.03;;;3.89;74.49
40918;BME280;26644;50.248;19.032;2023-05-09T03:06:39;99052.88;;;3.89;74.41
40918;BME280;26644;50.248;19.032;2023-05-09T03:09:43;99055.44;;;3.84;74.67
40918;BME280;26644;50.248;19.032;2023-05-09T03:12:49;99058.19;;;3.77;74.88
40918;BME280;26644;50.248;19.032;2023-05-09T03:15:53;99057.56;;;3.75;75.17
40918;BME280;26644;50.248;19.032;2023-05-09T03:19:01;99052.81;;;3.71;75.45
40918;BME280;26644;50.248;19.032;2023-05-09T03:22:07;99065.56;;;3.64;75.73
40918;BME280;26644;50.248;19.032;2023-05-09T03:25:19;99062.63;;;3.65;75.90
40918;BME280;26644;50.248;19.032;2023-05-09T03:28:24;99054.94;;;3.62;75.98
40918;BME280;26644;50.248;19.032;2023-05-09T03:31:32;99050.13;;;3.64;75.90
40918;BME280;26644;50.248;19.032;2023-05-09T03:34:39;99059.88;;;3.72;76.07
40918;BME280;26644;50.248;19.032;2023-05-09T03:37:44;99059.41;;;3.82;75.77
40918;BME280;26644;50.248;19.032;2023-05-09T03:40:49;99065.03;;;3.87;75.55
40918;BME280;26644;50.248;19.032;2023-05-09T03:43:55;99050.28;;;4.01;75.25
40918;BME280;26644;50.248;19.032;2023-05-09T03:46:59;99055.09;;;4.24;75.07
40918;BME280;26644;50.248;19.032;2023-05-09T03:50:13;99058.25;;;4.47;73.92
40918;BME280;26644;50.248;19.032;2023-05-09T03:53:19;99065.75;;;4.70;72.98
40918;BME280;26644;50.248;19.032;2023-05-09T03:56:26;99065.69;;;4.95;72.13
40918;BME280;26644;50.248;19.032;2023-05-09T03:59:31;99062.16;;;5.13;71.06
40918;BME280;26644;50.248;19.032;2023-05-09T04:02:37;99063.00;;;5.44;70.65
40918;BME280;26644;50.248;19.032;2023-05-09T04:05:46;99061.75;;;5.58;69.71
40918;BME280;26644;50.248;19.032;2023-05-09T04:09:05;99070.16;;;5.87;68.62
40918;BME280;26644;50.248;19.032;2023-05-09T04:12:09;99066.16;;;6.14;68.36
40918;BME280;26644;50.248;19.032;2023-05-09T04:15:15;99068.09;;;6.49;67.08
40918;BME280;26644;50.248;19.032;2023-05-09T04:18:20;99067.84;;;6.74;66.06
40918;BME280;26644;50.248;19.032;2023-05-09T04:21:29;99070.66;;;6.91;65.68
40918;BME280;26644;50.248;19.032;2023-05-09T04:24:36;99064.28;;;7.09;64.66
40918;BME280;26644;50.248;19.032;2023-05-09T04:27:41;99068.69;;;7.39;63.89
40918;BME280;26644;50.248;19.032;2023-05-09T04:30:46;99075.25;;;7.55;63.40
40918;BME280;26644;50.248;19.032;2023-05-09T04:33:53;99082.72;;;7.88;62.66
40918;BME280;26644;50.248;19.032;2023-05-09T04:37:02;99079.59;;;8.31;61.18
40918;BME280;26644;50.248;19.032;2023-05-09T04:40:08;99082.69;;;8.51;60.24
40918;BME280;26644;50.248;19.032;2023-05-09T04:43:21;99073.88;;;8.66;59.84
40918;BME280;26644;50.248;19.032;2023-05-09T04:46:29;99074.16;;;8.87;59.11
40918;BME280;26644;50.248;19.032;2023-05-09T04:49:33;99070.66;;;8.91;59.29
40918;BME280;26644;50.248;19.032;2023-05-09T04:52:41;99074.34;;;8.80;58.92
40918;BME280;26644;50.248;19.032;2023-05-09T04:55:46;99067.75;;;8.59;59.67
40918;BME280;26644;50.248;19.032;2023-05-09T04:58:52;99056.66;;;8.32;60.27
40918;BME280;26644;50.248;19.032;2023-05-09T05:01:57;99055.91;;;8.02;61.01
40918;BME280;26644;50.248;19.032;2023-05-09T05:05:03;99066.81;;;7.85;61.95
40918;BME280;26644;50.248;19.032;2023-05-09T05:08:14;99052.03;;;7.69;62.42
40918;BME280;26644;50.248;19.032;2023-05-09T05:11:20;99067.03;;;7.67;63.00
40918;BME280;26644;50.248;19.032;2023-05-09T05:14:25;99066.59;;;7.58;63.44
40918;BME280;26644;50.248;19.032;2023-05-09T05:17:30;99061.00;;;7.65;63.58
40918;BME280;26644;50.248;19.032;2023-05-09T05:20:39;99061.28;;;7.97;63.13
40918;BME280;26644;50.248;19.032;2023-05-09T05:23:48;99066.34;;;8.56;62.09
40918;BME280;26644;50.248;19.032;2023-05-09T05:26:53;99054.50;;;9.34;59.36
40918;BME280;26644;50.248;19.032;2023-05-09T05:30:00;99061.41;;;10.19;58.38
40918;BME280;26644;50.248;19.032;2023-05-09T05:33:05;99056.00;;;10.67;55.23
40918;BME280;26644;50.248;19.032;2023-05-09T05:36:10;99069.81;;;11.30;53.53
40918;BME280;26644;50.248;19.032;2023-05-09T05:39:19;99070.94;;;11.39;52.07
40918;BME280;26644;50.248;19.032;2023-05-09T05:42:25;99057.53;;;11.64;52.19
40918;BME280;26644;50.248;19.032;2023-05-09T05:45:29;99042.25;;;11.99;51.33
40918;BME280;26644;50.248;19.032;2023-05-09T05:48:39;99051.31;;;12.45;49.76
40918;BME280;26644;50.248;19.032;2023-05-09T05:51:44;99065.59;;;12.68;49.50
40918;BME280;26644;50.248;19.032;2023-05-09T05:54:52;99054.84;;;12.87;48.67
40918;BME280;26644;50.248;19.032;2023-05-09T05:57:57;99055.28;;;13.25;47.78
40918;BME280;26644;50.248;19.032;2023-05-09T06:01:03;99052.59;;;13.65;47.29
40918;BME280;26644;50.248;19.032;2023-05-09T06:04:09;99059.69;;;14.21;46.29
40918;BME280;26644;50.248;19.032;2023-05-09T06:07:14;99052.91;;;14.38;45.34
40918;BME280;26644;50.248;19.032;2023-05-09T06:10:22;99056.63;;;14.87;44.25
40918;BME280;26644;50.248;19.032;2023-05-09T06:13:27;99049.81;;;15.27;43.44
40918;BME280;26644;50.248;19.032;2023-05-09T06:16:37;99044.72;;;15.59;42.34
40918;BME280;26644;50.248;19.032;2023-05-09T06:19:43;99054.16;;;15.58;41.89
40918;BME280;26644;50.248;19.032;2023-05-09T06:22:47;99049.44;;;15.97;41.83
40918;BME280;26644;50.248;19.032;2023-05-09T06:25:56;99053.78;;;16.55;40.64
40918;BME280;26644;50.248;19.032;2023-05-09T06:29:02;99040.69;;;16.88;39.60
40918;BME280;26644;50.248;19.032;2023-05-09T06:32:08;99046.69;;;16.96;38.94
40918;BME280;26644;50.248;19.032;2023-05-09T06:35:13;99056.66;;;16.64;38.94
40918;BME280;26644;50.248;19.032;2023-05-09T06:38:18;99037.81;;;15.94;38.82
40918;BME280;26644;50.248;19.032;2023-05-09T06:41:25;99045.41;;;15.70;39.56
40918;BME280;26644;50.248;19.032;2023-05-09T06:44:30;99039.56;;;15.52;39.53
40918;BME280;26644;50.248;19.032;2023-05-09T06:47:34;99033.56;;;15.64;39.28
40918;BME280;26644;50.248;19.032;2023-05-09T06:50:40;99039.09;;;15.64;38.99
40918;BME280;26644;50.248;19.032;2023-05-09T06:53:44;99048.69;;;16.10;38.15
40918;BME280;26644;50.248;19.032;2023-05-09T06:56:52;99021.41;;;15.84;37.88
40918;BME280;26644;50.248;19.032;2023-05-09T06:59:56;99032.28;;;15.94;37.71
40918;BME280;26644;50.248;19.032;2023-05-09T07:03:02;99020.38;;;16.13;37.95
40918;BME280;26644;50.248;19.032;2023-05-09T07:06:07;99011.56;;;15.92;37.12
40918;BME280;26644;50.248;19.032;2023-05-09T07:09:12;99013.16;;;15.60;37.33
40918;BME280;26644;50.248;19.032;2023-05-09T07:12:23;99014.13;;;15.88;37.70
40918;BME280;26644;50.248;19.032;2023-05-09T07:15:28;99008.59;;;15.88;37.28
40918;BME280;26644;50.248;19.032;2023-05-09T07:18:32;98994.78;;;16.35;36.88
40918;BME280;26644;50.248;19.032;2023-05-09T07:21:37;99000.94;;;16.32;36.57
40918;BME280;26644;50.248;19.032;2023-05-09T07:24:42;99020.44;;;16.27;36.52
40918;BME280;26644;50.248;19.032;2023-05-09T07:27:50;99004.63;;;16.27;36.24
40918;BME280;26644;50.248;19.032;2023-05-09T07:30:54;98999.22;;;16.50;36.12
40918;BME280;26644;50.248;19.032;2023-05-09T07:34:00;98998.75;;;16.15;36.19
40918;BME280;26644;50.248;19.032;2023-05-09T07:37:04;99007.38;;;15.94;36.93
40918;BME280;26644;50.248;19.032;2023-05-09T07:40:10;98989.63;;;15.96;36.51
40918;BME280;26644;50.248;19.032;2023-05-09T07:43:18;98986.16;;;15.71;36.96
40918;BME280;26644;50.248;19.032;2023-05-09T07:46:23;98991.31;;;16.10;36.99
40918;BME280;26644;50.248;19.032;2023-05-09T07:49:28;98991.84;;;16.46;36.56
40918;BME280;26644;50.248;19.032;2023-05-09T07:52:33;98985.44;;;16.92;35.68
40918;BME280;26644;50.248;19.032;2023-05-09T07:55:37;98973.44;;;17.47;34.66
40918;BME280;26644;50.248;19.032;2023-05-09T07:58:45;98979.19;;;17.65;34.24
40918;BME280;26644;50.248;19.032;2023-05-09T08:01:49;98968.66;;;17.75;33.60
40918;BME280;26644;50.248;19.032;2023-05-09T08:04:55;98981.16;;;17.87;33.65
40918;BME280;26644;50.248;19.032;2023-05-09T08:07:59;98974.44;;;18.02;33.16
40918;BME280;26644;50.248;19.032;2023-05-09T08:11:04;98983.19;;;18.18;33.30
40918;BME280;26644;50.248;19.032;2023-05-09T08:14:11;98973.44;;;18.29;32.73
40918;BME280;26644;50.248;19.032;2023-05-09T08:17:16;98975.22;;;18.48;32.55
40918;BME280;26644;50.248;19.032;2023-05-09T08:20:21;98977.50;;;18.23;32.37
40918;BME280;26644;50.248;19.032;2023-05-09T08:23:26;98969.19;;;18.54;32.73
40918;BME280;26644;50.248;19.032;2023-05-09T08:26:31;98986.56;;;18.37;32.19
40918;BME280;26644;50.248;19.032;2023-05-09T08:29:38;98969.97;;;18.46;32.37
40918;BME280;26644;50.248;19.032;2023-05-09T08:32:43;98952.72;;;18.35;32.17
40918;BME280;26644;50.248;19.032;2023-05-09T08:35:49;98958.06;;;18.23;32.18
40918;BME280;26644;50.248;19.032;2023-05-09T08:38:54;98965.63;;;18.63;32.17
40918;BME280;26644;50.248;19.032;2023-05-09T08:42:00;98959.94;;;18.68;32.52
40918;BME280;26644;50.248;19.032;2023-05-09T08:45:09;98967.56;;;18.53;32.58
40918;BME280;26644;50.248;19.032;2023-05-09T08:48:17;98957.91;;;18.51;32.96
40918;BME280;26644;50.248;19.032;2023-05-09T08:51:22;98960.31;;;18.75;32.91
40918;BME280;26644;50.248;19.032;2023-05-09T08:54:28;98951.25;;;19.09;32.62
40918;BME280;26644;50.248;19.032;2023-05-09T08:57:33;98958.41;;;19.02;32.14
40918;BME280;26644;50.248;19.032;2023-05-09T09:00:41;98947.25;;;18.84;32.66
40918;BME280;26644;50.248;19.032;2023-05-09T09:03:47;98963.75;;;19.30;32.28
40918;BME280;26644;50.248;19.032;2023-05-09T09:06:54;98950.69;;;19.48;31.83
40918;BME280;26644;50.248;19.032;2023-05-09T09:09:59;98952.16;;;19.80;31.35
40918;BME280;26644;50.248;19.032;2023-05-09T09:13:09;98967.53;;;19.95;31.44
40918;BME280;26644;50.248;19.032;2023-05-09T09:16:20;98967.56;;;19.42;31.30
40918;BME280;26644;50.248;19.032;2023-05-09T09:19:29;98955.13;;;19.00;31.99
40918;BME280;26644;50.248;19.032;2023-05-09T09:22:37;98951.28;;;19.27;32.35
40918;BME280;26644;50.248;19.032;2023-05-09T09:25:46;98941.44;;;19.12;32.10
40918;BME280;26644;50.248;19.032;2023-05-09T09:28:51;98940.78;;;18.66;32.07
40918;BME280;26644;50.248;19.032;2023-05-09T09:32:01;98944.16;;;18.00;32.91
40918;BME280;26644;50.248;19.032;2023-05-09T09:35:09;98940.56;;;17.54;33.82
40918;BME280;26644;50.248;19.032;2023-05-09T09:38:16;98935.84;;;17.77;33.66
40918;BME280;26644;50.248;19.032;2023-05-09T09:41:29;98944.44;;;18.44;33.73
40918;BME280;26644;50.248;19.032;2023-05-09T09:44:35;98935.50;;;19.05;32.81
40918;BME280;26644;50.248;19.032;2023-05-09T09:47:43;98951.31;;;19.36;32.00
40918;BME280;26644;50.248;19.032;2023-05-09T09:50:53;98935.78;;;18.86;32.17
40918;BME280;26644;50.248;19.032;2023-05-09T09:54:00;98907.38;;;18.26;32.29
40918;BME280;26644;50.248;19.032;2023-05-09T09:57:07;98909.38;;;17.80;32.80
40918;BME280;26644;50.248;19.032;2023-05-09T10:00:13;98905.03;;;17.88;32.68
40918;BME280;26644;50.248;19.032;2023-05-09T10:03:22;98931.75;;;17.98;32.92
40918;BME280;26644;50.248;19.032;2023-05-09T10:06:27;98916.09;;;18.02;32.56
40918;BME280;26644;50.248;19.032;2023-05-09T10:09:33;98908.00;;;18.46;32.41
40918;BME280;26644;50.248;19.032;2023-05-09T10:12:39;98910.78;;;19.03;31.88
40918;BME280;26644;50.248;19.032;2023-05-09T10:15:47;98914.97;;;19.32;31.96
40918;BME280;26644;50.248;19.032;2023-05-09T10:18:55;98881.88;;;19.39;31.59
40918;BME280;26644;50.248;19.032;2023-05-09T10:22:04;98894.66;;;19.40;31.26
40918;BME280;26644;50.248;19.032;2023-05-09T10:25:17;98907.25;;;19.64;30.45
40918;BME280;26644;50.248;19.032;2023-05-09T10:28:30;98907.34;;;18.98;31.36
40918;BME280;26644;50.248;19.032;2023-05-09T10:31:38;98902.84;;;18.62;32.31
40918;BME280;26644;50.248;19.032;2023-05-09T10:34:53;98895.66;;;18.69;32.32
40918;BME280;26644;50.248;19.032;2023-05-09T10:38:06;98900.28;;;18.42;32.25
40918;BME280;26644;50.248;19.032;2023-05-09T10:41:15;98884.47;;;18.20;32.40
40918;BME280;26644;50.248;19.032;2023-05-09T10:44:24;98887.47;;;18.01;32.14
40918;BME280;26644;50.248;19.032;2023-05-09T10:47:30;98889.59;;;17.36;32.92
40918;BME280;26644;50.248;19.032;2023-05-09T10:50:38;98879.50;;;17.54;32.55
40918;BME280;26644;50.248;19.032;2023-05-09T10:53:46;98874.63;;;17.60;32.18
40918;BME280;26644;50.248;19.032;2023-05-09T10:56:51;98891.72;;;17.76;32.48
40918;BME280;26644;50.248;19.032;2023-05-09T10:59:58;98867.25;;;17.55;32.12
40918;BME280;26644;50.248;19.032;2023-05-09T11:03:06;98866.81;;;17.25;32.63
40918;BME280;26644;50.248;19.032;2023-05-09T11:06:42;98863.53;;;16.87;33.27
40918;BME280;26644;50.248;19.032;2023-05-09T11:09:51;98845.75;;;16.18;34.06
40918;BME280;26644;50.248;19.032;2023-05-09T11:12:59;98844.06;;;15.89;33.98
40918;BME280;26644;50.248;19.032;2023-05-09T11:16:12;98846.91;;;15.56;34.11
40918;BME280;26644;50.248;19.032;2023-05-09T11:19:33;98835.00;;;15.37;33.54
40918;BME280;26644;50.248;19.032;2023-05-09T11:22:43;98835.97;;;15.46;33.76
40918;BME280;26644;50.248;19.032;2023-05-09T11:25:48;98831.75;;;15.49;33.97
40918;BME280;26644;50.248;19.032;2023-05-09T11:28:53;98842.91;;;15.43;34.03
40918;BME280;26644;50.248;19.032;2023-05-09T11:32:06;98824.88;;;15.65;33.87
40918;BME280;26644;50.248;19.032;2023-05-09T11:35:13;98812.59;;;15.85;34.11
40918;BME280;26644;50.248;19.032;2023-05-09T11:38:22;98816.38;;;15.75;34.06
40918;BME280;26644;50.248;19.032;2023-05-09T11:41:28;98809.28;;;15.55;34.50
40918;BME280;26644;50.248;19.032;2023-05-09T11:44:35;98789.91;;;15.36;34.91
40918;BME280;26644;50.248;19.032;2023-05-09T11:47:39;98797.81;;;14.91;35.65
40918;BME280;26644;50.248;19.032;2023-05-09T11:50:46;98804.50;;;15.23;35.18
40918;BME280;26644;50.248;19.032;2023-05-09T11:53:53;98790.59;;;15.28;35.73
40918;BME280;26644;50.248;19.032;2023-05-09T11:56:58;98791.63;;;15.32;36.14
40918;BME280;26644;50.248;19.032;2023-05-09T12:00:05;98784.50;;;15.12;36.75
40918;BME280;26644;50.248;19.032;2023-05-09T12:03:11;98779.34;;;15.24;36.70
40918;BME280;26644;50.248;19.032;2023-05-09T12:06:18;98777.09;;;15.59;36.19
40918;BME280;26644;50.248;19.032;2023-05-09T12:09:29;98776.63;;;15.99;35.67
40918;BME280;26644;50.248;19.032;2023-05-09T12:12:35;98768.41;;;16.08;34.93
40918;BME280;26644;50.248;19.032;2023-05-09T12:15:45;98771.00;;;16.04;34.84
40918;BME280;26644;50.248;19.032;2023-05-09T12:18:51;98770.25;;;15.99;34.46
40918;BME280;26644;50.248;19.032;2023-05-09T12:21:58;98766.03;;;16.01;34.77
40918;BME280;26644;50.248;19.032;2023-05-09T12:25:09;98760.41;;;15.78;35.41
40918;BME280;26644;50.248;19.032;2023-05-09T12:28:16;98745.34;;;15.71;35.54
40918;BME280;26644;50.248;19.032;2023-05-09T12:31:24;98753.13;;;15.69;35.17
40918;BME280;26644;50.248;19.032;2023-05-09T12:34:30;98749.41;;;15.73;35.57
40918;BME280;26644;50.248;19.032;2023-05-09T12:37:35;98752.50;;;15.72;35.87
40918;BME280;26644;50.248;19.032;2023-05-09T12:40:46;98745.75;;;15.78;36.02
40918;BME280;26644;50.248;19.032;2023-05-09T12:43:51;98743.59;;;15.89;35.77
40918;BME280;26644;50.248;19.032;2023-05-09T12:46:58;98757.94;;;16.05;35.73
40918;BME280;26644;50.248;19.032;2023-05-09T12:50:06;98754.56;;;16.22;35.48
40918;BME280;26644;50.248;19.032;2023-05-09T12:53:22;98741.03;;;16.20;34.80
40918;BME280;26644;50.248;19.032;2023-05-09T12:56:32;98734.69;;;16.06;35.04
40918;BME280;26644;50.248;19.032;2023-05-09T12:59:42;98740.50;;;15.90;34.99
40918;BME280;26644;50.248;19.032;2023-05-09T13:02:47;98732.72;;;15.92;35.22
40918;BME280;26644;50.248;19.032;2023-05-09T13:05:54;98729.22;;;16.01;35.39
40918;BME280;26644;50.248;19.032;2023-05-09T13:09:00;98707.59;;;16.03;35.60
40918;BME280;26644;50.248;19.032;2023-05-09T13:12:11;98706.56;;;16.13;35.56
40918;BME280;26644;50.248;19.032;2023-05-09T13:15:17;98710.44;;;16.11;35.12
40918;BME280;26644;50.248;19.032;2023-05-09T13:18:23;98711.50;;;16.02;35.33
40918;BME280;26644;50.248;19.032;2023-05-09T13:21:27;98684.00;;;15.91;35.36
40918;BME280;26644;50.248;19.032;2023-05-09T13:24:33;98702.59;;;15.91;35.76
40918;BME280;26644;50.248;19.032;2023-05-09T13:27:40;98702.47;;;15.82;35.58
40918;BME280;26644;50.248;19.032;2023-05-09T13:30:45;98690.78;;;15.71;35.34
40918;BME280;26644;50.248;19.032;2023-05-09T13:33:50;98696.00;;;15.73;35.62
40918;BME280;26644;50.248;19.032;2023-05-09T13:36:56;98681.97;;;15.69;35.63
40918;BME280;26644;50.248;19.032;2023-05-09T13:40:00;98686.28;;;15.75;35.41
40918;BME280;26644;50.248;19.032;2023-05-09T13:43:08;98684.81;;;15.64;35.33
40918;BME280;26644;50.248;19.032;2023-05-09T13:46:12;98685.16;;;15.76;35.45
40918;BME280;26644;50.248;19.032;2023-05-09T13:49:18;98684.81;;;15.64;34.80
40918;BME280;26644;50.248;19.032;2023-05-09T13:52:22;98673.38;;;15.71;35.17
40918;BME280;26644;50.248;19.032;2023-05-09T13:55:27;98668.34;;;15.73;35.49
40918;BME280;26644;50.248;19.032;2023-05-09T13:58:35;98676.63;;;15.73;35.20
40918;BME280;26644;50.248;19.032;2023-05-09T14:01:40;98661.38;;;15.62;34.89
40918;BME280;26644;50.248;19.032;2023-05-09T14:04:44;98664.03;;;15.67;34.51
40918;BME280;26644;50.248;19.032;2023-05-09T14:07:49;98656.22;;;15.55;34.87
40918;BME280;26644;50.248;19.032;2023-05-09T14:10:54;98660.53;;;15.61;35.22
40918;BME280;26644;50.248;19.032;2023-05-09T14:14:02;98657.16;;;15.64;35.39
40918;BME280;26644;50.248;19.032;2023-05-09T14:17:06;98637.06;;;15.58;35.41
40918;BME280;26644;50.248;19.032;2023-05-09T14:20:12;98648.84;;;15.78;35.25
40918;BME280;26644;50.248;19.032;2023-05-09T14:23:17;98638.91;;;15.77;34.70
40918;BME280;26644;50.248;19.032;2023-05-09T14:26:23;98628.34;;;15.79;34.68
40918;BME280;26644;50.248;19.032;2023-05-09T14:29:31;98631.97;;;15.66;34.49
40918;BME280;26644;50.248;19.032;2023-05-09T14:32:37;98633.88;;;15.65;34.12
40918;BME280;26644;50.248;19.032;2023-05-09T14:35:41;98626.59;;;15.69;33.96
40918;BME280;26644;50.248;19.032;2023-05-09T14:38:47;98626.31;;;15.71;34.02
40918;BME280;26644;50.248;19.032;2023-05-09T14:41:51;98630.41;;;15.73;34.02
40918;BME280;26644;50.248;19.032;2023-05-09T14:44:59;98633.25;;;15.82;34.30
40918;BME280;26644;50.248;19.032;2023-05-09T14:48:03;98620.06;;;15.79;33.90
40918;BME280;26644;50.248;19.032;2023-05-09T14:51:09;98626.41;;;15.93;34.09
40918;BME280;26644;50.248;19.032;2023-05-09T14:54:14;98631.94;;;15.93;33.67
40918;BME280;26644;50.248;19.032;2023-05-09T14:57:19;98615.22;;;15.85;33.91
40918;BME280;26644;50.248;19.032;2023-05-09T15:00:26;98629.38;;;15.83;33.99
40918;BME280;26644;50.248;19.032;2023-05-09T15:03:32;98603.44;;;15.65;34.38
40918;BME280;26644;50.248;19.032;2023-05-09T15:06:36;98597.84;;;15.56;34.49
40918;BME280;26644;50.248;19.032;2023-05-09T15:09:42;98595.16;;;15.65;34.09
40918;BME280;26644;50.248;19.032;2023-05-09T15:12:46;98593.41;;;15.69;34.01
40918;BME280;26644;50.248;19.032;2023-05-09T15:15:54;98595.47;;;15.77;34.25
40918;BME280;26644;50.248;19.032;2023-05-09T15:19:01;98589.59;;;15.79;34.42
40918;BME280;26644;50.248;19.032;2023-05-09T15:22:06;98586.41;;;15.86;34.51
40918;BME280;26644;50.248;19.032;2023-05-09T15:25:11;98573.69;;;15.85;33.99
40918;BME280;26644;50.248;19.032;2023-05-09T15:28:17;98573.06;;;15.88;34.00
40918;BME280;26644;50.248;19.032;2023-05-09T15:31:24;98557.41;;;15.83;34.41
40918;BME280;26644;50.248;19.032;2023-05-09T15:34:29;98572.69;;;15.81;34.39
40918;BME280;26644;50.248;19.032;2023-05-09T15:37:34;98560.97;;;15.84;33.91
40918;BME280;26644;50.248;19.032;2023-05-09T15:40:40;98557.41;;;15.83;34.24
40918;BME280;26644;50.248;19.032;2023-05-09T15:43:44;98566.34;;;15.66;33.98
40918;BME280;26644;50.248;19.032;2023-05-09T15:46:52;98545.66;;;15.64;34.18
40918;BME280;26644;50.248;19.032;2023-05-09T15:49:58;98550.53;;;15.67;34.16
40918;BME280;26644;50.248;19.032;2023-05-09T15:53:04;98555.16;;;15.71;34.11
40918;BME280;26644;50.248;19.032;2023-05-09T15:56:08;98556.72;;;15.64;34.02
40918;BME280;26644;50.248;19.032;2023-05-09T15:59:13;98546.38;;;15.55;33.87
40918;BME280;26644;50.248;19.032;2023-05-09T16:02:20;98548.72;;;15.62;33.98
40918;BME280;26644;50.248;19.032;2023-05-09T16:05:26;98547.50;;;15.54;33.97
40918;BME280;26644;50.248;19.032;2023-05-09T16:08:30;98543.63;;;15.55;34.09
40918;BME280;26644;50.248;19.032;2023-05-09T16:11:36;98536.31;;;15.59;34.29
40918;BME280;26644;50.248;19.032;2023-05-09T16:14:40;98542.34;;;15.48;34.04
40918;BME280;26644;50.248;19.032;2023-05-09T16:17:48;98532.53;;;15.55;33.87
40918;BME280;26644;50.248;19.032;2023-05-09T16:20:52;98523.81;;;15.48;34.11